sensor_id;sensor_type;location;lat;lon;timestamp;P1;durP1;ratioP1;P2;durP2;ratioP2
72404;SDS011;60395;52.020;113.548;2023-02-11T00:00:58;21.80;;;7.35;;
72404;SDS011;60395;52.020;113.548;2023-02-11T00:04:02;26.00;;;12.13;;
72404;SDS011;60395;52.020;113.548;2023-02-11T00:07:07;14.75;;;5.63;;
72404;SDS011;60395;52.020;113.548;2023-02-11T00:10:10;12.25;;;5.43;;
72404;SDS011;60395;52.020;113.548;2023-02-11T00:13:13;30.95;;;10.65;;
72404;SDS011;60395;52.020;113.548;2023-02-11T00:16:18;34.63;;;11.27;;
72404;SDS011;60395;52.020;113.548;2023-02-11T00:19:22;9.00;;;3.75;;
72404;SDS011;60395;52.020;113.548;2023-02-11T00:22:26;17.17;;;7.77;;
72404;SDS011;60395;52.020;113.548;2023-02-11T00:25:29;18.00;;;7.95;;
72404;SDS011;60395;52.020;113.548;2023-02-11T00:28:32;21.92;;;7.53;;
72404;SDS011;60395;52.020;113.548;2023-02-11T00:31:36;27.95;;;9.52;;
72404;SDS011;60395;52.020;113.548;2023-02-11T00:34:39;25.35;;;12.15;;
72404;SDS011;60395;52.020;113.548;2023-02-11T00:37:43;33.77;;;12.87;;
72404;SDS011;60395;52.020;113.548;2023-02-11T00:40:46;43.05;;;15.52;;
72404;SDS011;60395;52.020;113.548;2023-02-11T00:43:50;38.97;;;16.07;;
72404;SDS011;60395;52.020;113.548;2023-02-11T00:46:53;43.65;;;15.32;;
72404;SDS011;60395;52.020;113.548;2023-02-11T00:49:57;39.28;;;13.93;;
72404;SDS011;60395;52.020;113.548;2023-02-11T00:53:02;34.67;;;14.02;;
72404;SDS011;60395;52.020;113.548;2023-02-11T00:56:05;32.10;;;12.98;;
72404;SDS011;60395;52.020;113.548;2023-02-11T00:59:09;41.92;;;14.02;;
72404;SDS011;60395;52.020;113.548;2023-02-11T01:02:12;38.45;;;15.25;;
72404;SDS011;60395;52.020;113.548;2023-02-11T01:05:16;35.70;;;14.52;;
72404;SDS011;60395;52.020;113.548;2023-02-11T01:08:22;20.60;;;9.13;;
72404;SDS011;60395;52.020;113.548;2023-02-11T01:11:26;52.38;;;15.57;;
72404;SDS011;60395;52.020;113.548;2023-02-11T01:14:29;76.80;;;17.67;;
72404;SDS011;60395;52.020;113.548;2023-02-11T01:17:33;50.80;;;15.85;;
72404;SDS011;60395;52.020;113.548;2023-02-11T01:20:37;33.35;;;11.85;;
72404;SDS011;60395;52.020;113.548;2023-02-11T01:23:40;13.23;;;3.90;;
72404;SDS011;60395;52.020;113.548;2023-02-11T01:26:45;23.48;;;10.85;;
72404;SDS011;60395;52.020;113.548;2023-02-11T01:29:48;15.50;;;6.70;;
72404;SDS011;60395;52.020;113.548;2023-02-11T01:32:54;48.78;;;16.15;;
72404;SDS011;60395;52.020;113.548;2023-02-11T01:36:04;44.30;;;16.10;;
72404;SDS011;60395;52.020;113.548;2023-02-11T01:39:08;6.30;;;4.13;;
72404;SDS011;60395;52.020;113.548;2023-02-11T01:42:14;9.05;;;4.60;;
72404;SDS011;60395;52.020;113.548;2023-02-11T01:49:05;14.05;;;5.15;;
72404;SDS011;60395;52.020;113.548;2023-02-11T01:55:20;15.65;;;5.43;;
72404;SDS011;60395;52.020;113.548;2023-02-11T01:58:42;24.67;;;7.65;;
72404;SDS011;60395;52.020;113.548;2023-02-11T02:01:49;28.63;;;10.85;;
72404;SDS011;60395;52.020;113.548;2023-02-11T02:05:01;44.90;;;14.57;;
72404;SDS011;60395;52.020;113.548;2023-02-11T02:08:19;24.08;;;9.80;;
72404;SDS011;60395;52.020;113.548;2023-02-11T02:11:23;26.08;;;9.75;;
72404;SDS011;60395;52.020;113.548;2023-02-11T02:14:27;31.05;;;9.27;;
72404;SDS011;60395;52.020;113.548;2023-02-11T02:17:34;21.55;;;7.75;;
72404;SDS011;60395;52.020;113.548;2023-02-11T02:38:07;35.17;;;11.63;;
72404;SDS011;60395;52.020;113.548;2023-02-11T02:41:31;23.55;;;10.27;;
72404;SDS011;60395;52.020;113.548;2023-02-11T02:44:36;17.08;;;7.10;;
72404;SDS011;60395;52.020;113.548;2023-02-11T02:47:39;23.88;;;7.63;;
72404;SDS011;60395;52.020;113.548;2023-02-11T02:50:43;30.50;;;9.68;;
72404;SDS011;60395;52.020;113.548;2023-02-11T02:57:59;30.50;;;11.23;;
72404;SDS011;60395;52.020;113.548;2023-02-11T03:01:18;35.27;;;11.90;;
72404;SDS011;60395;52.020;113.548;2023-02-11T03:04:47;26.65;;;10.18;;
72404;SDS011;60395;52.020;113.548;2023-02-11T03:07:58;28.90;;;10.13;;
72404;SDS011;60395;52.020;113.548;2023-02-11T03:11:03;32.03;;;12.55;;
72404;SDS011;60395;52.020;113.548;2023-02-11T03:14:09;26.20;;;9.50;;
72404;SDS011;60395;52.020;113.548;2023-02-11T03:17:16;38.20;;;12.93;;
72404;SDS011;60395;52.020;113.548;2023-02-11T03:20:21;29.48;;;10.70;;
72404;SDS011;60395;52.020;113.548;2023-02-11T03:23:29;33.55;;;12.43;;
72404;SDS011;60395;52.020;113.548;2023-02-11T03:29:58;33.85;;;11.73;;
72404;SDS011;60395;52.020;113.548;2023-02-11T03:33:07;32.97;;;12.05;;
72404;SDS011;60395;52.020;113.548;2023-02-11T03:36:40;28.25;;;10.27;;
72404;SDS011;60395;52.020;113.548;2023-02-11T03:43:19;22.88;;;8.63;;
72404;SDS011;60395;52.020;113.548;2023-02-11T03:46:32;30.77;;;9.68;;
72404;SDS011;60395;52.020;113.548;2023-02-11T03:49:40;22.67;;;7.55;;
72404;SDS011;60395;52.020;113.548;2023-02-11T03:52:45;25.70;;;5.25;;
72404;SDS011;60395;52.020;113.548;2023-02-11T03:55:51;18.25;;;6.53;;
72404;SDS011;60395;52.020;113.548;2023-02-11T03:59:03;16.33;;;6.60;;
72404;SDS011;60395;52.020;113.548;2023-02-11T04:02:07;7.65;;;3.72;;
72404;SDS011;60395;52.020;113.548;2023-02-11T04:05:11;28.08;;;7.97;;
72404;SDS011;60395;52.020;113.548;2023-02-11T04:08:17;22.15;;;8.52;;
72404;SDS011;60395;52.020;113.548;2023-02-11T04:11:20;10.43;;;5.25;;
72404;SDS011;60395;52.020;113.548;2023-02-11T04:14:23;20.88;;;8.02;;
72404;SDS011;60395;52.020;113.548;2023-02-11T04:17:27;31.17;;;10.10;;
72404;SDS011;60395;52.020;113.548;2023-02-11T04:20:30;25.00;;;8.70;;
72404;SDS011;60395;52.020;113.548;2023-02-11T04:23:33;24.52;;;9.48;;
72404;SDS011;60395;52.020;113.548;2023-02-11T04:26:37;28.98;;;11.38;;
72404;SDS011;60395;52.020;113.548;2023-02-11T04:29:41;63.67;;;22.85;;
72404;SDS011;60395;52.020;113.548;2023-02-11T04:32:44;15.02;;;4.00;;
72404;SDS011;60395;52.020;113.548;2023-02-11T04:35:47;25.85;;;8.13;;
72404;SDS011;60395;52.020;113.548;2023-02-11T04:38:51;20.30;;;8.43;;
72404;SDS011;60395;52.020;113.548;2023-02-11T04:41:54;21.48;;;7.15;;
72404;SDS011;60395;52.020;113.548;2023-02-11T04:44:58;13.40;;;5.40;;
72404;SDS011;60395;52.020;113.548;2023-02-11T04:48:02;24.75;;;6.97;;
72404;SDS011;60395;52.020;113.548;2023-02-11T04:51:05;7.78;;;2.88;;
72404;SDS011;60395;52.020;113.548;2023-02-11T04:54:09;13.05;;;5.50;;
72404;SDS011;60395;52.020;113.548;2023-02-11T04:57:12;17.40;;;6.30;;
72404;SDS011;60395;52.020;113.548;2023-02-11T05:00:16;15.25;;;5.90;;
72404;SDS011;60395;52.020;113.548;2023-02-11T05:03:19;12.88;;;5.78;;
72404;SDS011;60395;52.020;113.548;2023-02-11T05:06:22;20.52;;;7.75;;
72404;SDS011;60395;52.020;113.548;2023-02-11T05:09:26;7.80;;;4.07;;
72404;SDS011;60395;52.020;113.548;2023-02-11T05:12:29;15.50;;;5.75;;
72404;SDS011;60395;52.020;113.548;2023-02-11T05:15:33;9.93;;;4.57;;
72404;SDS011;60395;52.020;113.548;2023-02-11T05:18:36;9.88;;;4.03;;
72404;SDS011;60395;52.020;113.548;2023-02-11T05:25:02;9.77;;;3.15;;
72404;SDS011;60395;52.020;113.548;2023-02-11T05:28:05;11.38;;;4.05;;
72404;SDS011;60395;52.020;113.548;2023-02-11T05:31:09;10.70;;;3.10;;
72404;SDS011;60395;52.020;113.548;2023-02-11T05:34:13;13.73;;;4.72;;
72404;SDS011;60395;52.020;113.548;2023-02-11T05:37:17;10.38;;;3.78;;
72404;SDS011;60395;52.020;113.548;2023-02-11T05:40:20;13.13;;;6.05;;
72404;SDS011;60395;52.020;113.548;2023-02-11T05:43:23;16.08;;;5.45;;
72404;SDS011;60395;52.020;113.548;2023-02-11T05:46:27;13.43;;;4.88;;
72404;SDS011;60395;52.020;113.548;2023-02-11T05:49:33;14.70;;;5.68;;
72404;SDS011;60395;52.020;113.548;2023-02-11T05:52:37;18.25;;;6.35;;
72404;SDS011;60395;52.020;113.548;2023-02-11T05:55:40;11.00;;;4.90;;
72404;SDS011;60395;52.020;113.548;2023-02-11T05:58:44;7.93;;;3.47;;
72404;SDS011;60395;52.020;113.548;2023-02-11T06:01:47;6.32;;;1.75;;
72404;SDS011;60395;52.020;113.548;2023-02-11T06:04:50;7.45;;;2.50;;
72404;SDS011;60395;52.020;113.548;2023-02-11T06:07:54;7.85;;;2.90;;
72404;SDS011;60395;52.020;113.548;2023-02-11T06:10:57;7.53;;;3.42;;
72404;SDS011;60395;52.020;113.548;2023-02-11T06:14:00;4.85;;;2.03;;
72404;SDS011;60395;52.020;113.548;2023-02-11T06:17:03;10.30;;;4.50;;
72404;SDS011;60395;52.020;113.548;2023-02-11T06:20:07;8.02;;;3.50;;
72404;SDS011;60395;52.020;113.548;2023-02-11T06:23:12;7.63;;;3.28;;
72404;SDS011;60395;52.020;113.548;2023-02-11T06:26:16;5.82;;;2.72;;
72404;SDS011;60395;52.020;113.548;2023-02-11T06:29:22;8.40;;;2.67;;
72404;SDS011;60395;52.020;113.548;2023-02-11T06:32:26;6.38;;;2.92;;
72404;SDS011;60395;52.020;113.548;2023-02-11T06:35:47;20.52;;;4.32;;
72404;SDS011;60395;52.020;113.548;2023-02-11T06:38:50;20.33;;;3.63;;
72404;SDS011;60395;52.020;113.548;2023-02-11T06:41:54;16.85;;;3.83;;
72404;SDS011;60395;52.020;113.548;2023-02-11T06:44:57;12.68;;;3.80;;
72404;SDS011;60395;52.020;113.548;2023-02-11T06:48:00;8.77;;;3.08;;
72404;SDS011;60395;52.020;113.548;2023-02-11T06:51:05;11.05;;;3.17;;
72404;SDS011;60395;52.020;113.548;2023-02-11T06:54:11;18.25;;;3.25;;
72404;SDS011;60395;52.020;113.548;2023-02-11T06:57:14;10.93;;;3.13;;
72404;SDS011;60395;52.020;113.548;2023-02-11T07:00:18;11.30;;;3.25;;
72404;SDS011;60395;52.020;113.548;2023-02-11T07:03:21;7.93;;;3.28;;
72404;SDS011;60395;52.020;113.548;2023-02-11T07:06:25;11.75;;;3.60;;
72404;SDS011;60395;52.020;113.548;2023-02-11T07:09:29;10.88;;;3.38;;
72404;SDS011;60395;52.020;113.548;2023-02-11T07:12:32;5.35;;;2.22;;
72404;SDS011;60395;52.020;113.548;2023-02-11T07:15:36;8.57;;;3.47;;
72404;SDS011;60395;52.020;113.548;2023-02-11T07:18:40;11.25;;;4.05;;
72404;SDS011;60395;52.020;113.548;2023-02-11T07:21:43;9.65;;;3.03;;
72404;SDS011;60395;52.020;113.548;2023-02-11T07:24:46;7.20;;;2.63;;
72404;SDS011;60395;52.020;113.548;2023-02-11T07:27:49;8.52;;;3.28;;
72404;SDS011;60395;52.020;113.548;2023-02-11T07:30:53;7.90;;;2.72;;
72404;SDS011;60395;52.020;113.548;2023-02-11T07:33:58;9.65;;;3.10;;
72404;SDS011;60395;52.020;113.548;2023-02-11T07:37:03;6.20;;;2.53;;
72404;SDS011;60395;52.020;113.548;2023-02-11T07:40:06;7.38;;;2.67;;
72404;SDS011;60395;52.020;113.548;2023-02-11T07:43:10;6.88;;;2.78;;
72404;SDS011;60395;52.020;113.548;2023-02-11T07:46:15;7.43;;;3.00;;
72404;SDS011;60395;52.020;113.548;2023-02-11T07:49:20;7.75;;;3.20;;
72404;SDS011;60395;52.020;113.548;2023-02-11T07:52:23;17.70;;;5.78;;
72404;SDS011;60395;52.020;113.548;2023-02-11T07:55:27;12.30;;;4.50;;
72404;SDS011;60395;52.020;113.548;2023-02-11T07:58:30;9.85;;;3.60;;
72404;SDS011;60395;52.020;113.548;2023-02-11T08:01:34;16.77;;;5.10;;
72404;SDS011;60395;52.020;113.548;2023-02-11T08:04:37;15.52;;;4.18;;
72404;SDS011;60395;52.020;113.548;2023-02-11T08:07:41;8.98;;;3.78;;
72404;SDS011;60395;52.020;113.548;2023-02-11T08:10:44;7.72;;;3.40;;
72404;SDS011;60395;52.020;113.548;2023-02-11T08:13:47;13.65;;;3.95;;
72404;SDS011;60395;52.020;113.548;2023-02-11T08:16:51;5.07;;;2.73;;
72404;SDS011;60395;52.020;113.548;2023-02-11T08:19:55;4.10;;;1.90;;
72404;SDS011;60395;52.020;113.548;2023-02-11T08:22:58;8.25;;;3.08;;
72404;SDS011;60395;52.020;113.548;2023-02-11T08:26:02;7.43;;;3.05;;
72404;SDS011;60395;52.020;113.548;2023-02-11T08:29:08;12.55;;;4.07;;
72404;SDS011;60395;52.020;113.548;2023-02-11T08:32:13;12.60;;;4.30;;
72404;SDS011;60395;52.020;113.548;2023-02-11T08:35:16;18.13;;;7.22;;
72404;SDS011;60395;52.020;113.548;2023-02-11T08:38:19;16.95;;;5.07;;
72404;SDS011;60395;52.020;113.548;2023-02-11T08:41:23;13.98;;;5.10;;
72404;SDS011;60395;52.020;113.548;2023-02-11T08:44:27;13.13;;;4.53;;
72404;SDS011;60395;52.020;113.548;2023-02-11T08:47:31;7.13;;;3.60;;
72404;SDS011;60395;52.020;113.548;2023-02-11T08:50:37;15.13;;;4.18;;
72404;SDS011;60395;52.020;113.548;2023-02-11T08:53:41;12.25;;;4.78;;
72404;SDS011;60395;52.020;113.548;2023-02-11T08:56:45;12.15;;;5.25;;
72404;SDS011;60395;52.020;113.548;2023-02-11T08:59:52;12.98;;;5.35;;
72404;SDS011;60395;52.020;113.548;2023-02-11T09:02:55;18.33;;;6.22;;
72404;SDS011;60395;52.020;113.548;2023-02-11T09:05:58;13.20;;;5.53;;
72404;SDS011;60395;52.020;113.548;2023-02-11T09:09:02;18.45;;;7.10;;
72404;SDS011;60395;52.020;113.548;2023-02-11T09:12:05;16.75;;;6.45;;
72404;SDS011;60395;52.020;113.548;2023-02-11T09:15:09;20.70;;;7.70;;
72404;SDS011;60395;52.020;113.548;2023-02-11T09:18:12;12.40;;;4.88;;
72404;SDS011;60395;52.020;113.548;2023-02-11T09:21:17;19.95;;;6.55;;
72404;SDS011;60395;52.020;113.548;2023-02-11T09:24:21;9.43;;;3.70;;
72404;SDS011;60395;52.020;113.548;2023-02-11T09:27:24;21.23;;;7.47;;
72404;SDS011;60395;52.020;113.548;2023-02-11T09:30:27;18.73;;;7.55;;
72404;SDS011;60395;52.020;113.548;2023-02-11T09:33:31;27.80;;;8.75;;
72404;SDS011;60395;52.020;113.548;2023-02-11T09:36:36;26.47;;;8.30;;
72404;SDS011;60395;52.020;113.548;2023-02-11T09:39:40;19.55;;;8.05;;
72404;SDS011;60395;52.020;113.548;2023-02-11T09:46:19;28.17;;;8.82;;
72404;SDS011;60395;52.020;113.548;2023-02-11T09:49:35;27.73;;;10.35;;
72404;SDS011;60395;52.020;113.548;2023-02-11T09:52:59;29.02;;;9.93;;
72404;SDS011;60395;52.020;113.548;2023-02-11T09:56:13;31.27;;;9.45;;
72404;SDS011;60395;52.020;113.548;2023-02-11T09:59:17;35.00;;;11.43;;
72404;SDS011;60395;52.020;113.548;2023-02-11T10:05:51;14.82;;;6.03;;
72404;SDS011;60395;52.020;113.548;2023-02-11T10:19:45;30.23;;;9.55;;
72404;SDS011;60395;52.020;113.548;2023-02-11T10:23:06;32.85;;;9.25;;
72404;SDS011;60395;52.020;113.548;2023-02-11T10:26:25;23.17;;;9.88;;
72404;SDS011;60395;52.020;113.548;2023-02-11T10:29:34;33.92;;;11.45;;
72404;SDS011;60395;52.020;113.548;2023-02-11T10:32:43;27.42;;;9.02;;
72404;SDS011;60395;52.020;113.548;2023-02-11T10:35:54;23.27;;;8.30;;
72404;SDS011;60395;52.020;113.548;2023-02-11T10:39:20;26.67;;;8.43;;
72404;SDS011;60395;52.020;113.548;2023-02-11T10:42:26;26.10;;;9.13;;
72404;SDS011;60395;52.020;113.548;2023-02-11T10:45:34;20.73;;;6.78;;
72404;SDS011;60395;52.020;113.548;2023-02-11T10:48:45;19.40;;;5.88;;
72404;SDS011;60395;52.020;113.548;2023-02-11T10:52:04;13.02;;;5.50;;
72404;SDS011;60395;52.020;113.548;2023-02-11T10:55:21;18.17;;;5.88;;
72404;SDS011;60395;52.020;113.548;2023-02-11T10:58:32;20.45;;;7.10;;
72404;SDS011;60395;52.020;113.548;2023-02-11T11:01:44;15.75;;;6.47;;
72404;SDS011;60395;52.020;113.548;2023-02-11T11:04:54;22.80;;;7.68;;
72404;SDS011;60395;52.020;113.548;2023-02-11T11:07:59;19.83;;;8.40;;
72404;SDS011;60395;52.020;113.548;2023-02-11T11:11:07;21.88;;;8.23;;
72404;SDS011;60395;52.020;113.548;2023-02-11T11:14:17;26.55;;;9.38;;
72404;SDS011;60395;52.020;113.548;2023-02-11T11:17:21;13.25;;;6.32;;
72404;SDS011;60395;52.020;113.548;2023-02-11T11:20:26;28.52;;;9.70;;
72404;SDS011;60395;52.020;113.548;2023-02-11T11:23:31;26.38;;;9.73;;
72404;SDS011;60395;52.020;113.548;2023-02-11T11:26:40;23.20;;;9.60;;
72404;SDS011;60395;52.020;113.548;2023-02-11T11:29:49;16.67;;;6.57;;
72404;SDS011;60395;52.020;113.548;2023-02-11T11:32:56;23.27;;;9.40;;
72404;SDS011;60395;52.020;113.548;2023-02-11T11:36:05;18.92;;;7.43;;
72404;SDS011;60395;52.020;113.548;2023-02-11T11:42:31;17.45;;;6.38;;
72404;SDS011;60395;52.020;113.548;2023-02-11T11:45:36;19.40;;;7.30;;
72404;SDS011;60395;52.020;113.548;2023-02-11T11:52:05;18.65;;;6.28;;
72404;SDS011;60395;52.020;113.548;2023-02-11T11:55:33;19.38;;;6.82;;
72404;SDS011;60395;52.020;113.548;2023-02-11T11:58:39;16.63;;;6.13;;
72404;SDS011;60395;52.020;113.548;2023-02-11T12:01:47;20.55;;;7.25;;
72404;SDS011;60395;52.020;113.548;2023-02-11T12:05:18;15.77;;;6.18;;
72404;SDS011;60395;52.020;113.548;2023-02-11T12:46:30;24.80;;;9.50;;
72404;SDS011;60395;52.020;113.548;2023-02-11T12:49:52;17.67;;;7.07;;
72404;SDS011;60395;52.020;113.548;2023-02-11T13:03:44;21.27;;;8.98;;
72404;SDS011;60395;52.020;113.548;2023-02-11T13:06:50;17.27;;;7.82;;
72404;SDS011;60395;52.020;113.548;2023-02-11T13:09:58;29.70;;;10.50;;
72404;SDS011;60395;52.020;113.548;2023-02-11T13:13:21;28.25;;;8.77;;
72404;SDS011;60395;52.020;113.548;2023-02-11T13:16:37;27.67;;;9.48;;
72404;SDS011;60395;52.020;113.548;2023-02-11T13:19:51;24.98;;;10.70;;
72404;SDS011;60395;52.020;113.548;2023-02-11T13:23:11;33.63;;;14.10;;
72404;SDS011;60395;52.020;113.548;2023-02-11T13:33:15;26.98;;;9.13;;
72404;SDS011;60395;52.020;113.548;2023-02-11T13:36:21;19.98;;;7.95;;
72404;SDS011;60395;52.020;113.548;2023-02-11T13:39:29;21.60;;;7.05;;
72404;SDS011;60395;52.020;113.548;2023-02-11T13:42:33;11.57;;;4.83;;
72404;SDS011;60395;52.020;113.548;2023-02-11T13:45:52;32.35;;;11.43;;
72404;SDS011;60395;52.020;113.548;2023-02-11T13:49:01;34.60;;;11.73;;
72404;SDS011;60395;52.020;113.548;2023-02-11T13:52:04;21.95;;;8.88;;
72404;SDS011;60395;52.020;113.548;2023-02-11T13:55:28;22.42;;;7.80;;
72404;SDS011;60395;52.020;113.548;2023-02-11T13:58:45;36.35;;;11.20;;
72404;SDS011;60395;52.020;113.548;2023-02-11T14:05:30;30.08;;;9.88;;
72404;SDS011;60395;52.020;113.548;2023-02-11T14:12:18;29.38;;;10.82;;
72404;SDS011;60395;52.020;113.548;2023-02-11T14:15:26;7.07;;;2.58;;
72404;SDS011;60395;52.020;113.548;2023-02-11T14:18:36;9.70;;;4.60;;
72404;SDS011;60395;52.020;113.548;2023-02-11T14:21:48;10.85;;;4.07;;
72404;SDS011;60395;52.020;113.548;2023-02-11T14:28:02;7.93;;;2.28;;
72404;SDS011;60395;52.020;113.548;2023-02-11T14:41:22;24.83;;;6.68;;
72404;SDS011;60395;52.020;113.548;2023-02-11T14:44:31;12.65;;;4.85;;
72404;SDS011;60395;52.020;113.548;2023-02-11T14:50:45;15.32;;;5.18;;
72404;SDS011;60395;52.020;113.548;2023-02-11T14:54:02;8.38;;;3.67;;
72404;SDS011;60395;52.020;113.548;2023-02-11T14:57:17;12.90;;;4.07;;
72404;SDS011;60395;52.020;113.548;2023-02-11T15:00:22;16.13;;;5.70;;
72404;SDS011;60395;52.020;113.548;2023-02-11T15:06:37;15.45;;;5.18;;
72404;SDS011;60395;52.020;113.548;2023-02-11T15:09:45;15.52;;;5.40;;
72404;SDS011;60395;52.020;113.548;2023-02-11T15:12:53;15.43;;;4.88;;
72404;SDS011;60395;52.020;113.548;2023-02-11T15:15:58;21.88;;;6.68;;
72404;SDS011;60395;52.020;113.548;2023-02-11T15:19:10;16.80;;;5.10;;
72404;SDS011;60395;52.020;113.548;2023-02-11T15:22:36;23.83;;;3.45;;
72404;SDS011;60395;52.020;113.548;2023-02-11T15:25:41;16.83;;;3.35;;
72404;SDS011;60395;52.020;113.548;2023-02-11T15:28:47;11.40;;;3.92;;
72404;SDS011;60395;52.020;113.548;2023-02-11T15:32:03;9.50;;;4.13;;
72404;SDS011;60395;52.020;113.548;2023-02-11T15:35:09;13.93;;;4.40;;
72404;SDS011;60395;52.020;113.548;2023-02-11T15:38:13;8.35;;;3.53;;
72404;SDS011;60395;52.020;113.548;2023-02-11T15:41:33;12.07;;;4.75;;
72404;SDS011;60395;52.020;113.548;2023-02-11T15:44:39;12.38;;;4.03;;
72404;SDS011;60395;52.020;113.548;2023-02-11T15:47:47;8.07;;;3.25;;
72404;SDS011;60395;52.020;113.548;2023-02-11T15:50:56;11.10;;;3.90;;
72404;SDS011;60395;52.020;113.548;2023-02-11T15:54:24;4.82;;;2.80;;
72404;SDS011;60395;52.020;113.548;2023-02-11T15:57:28;7.85;;;3.17;;
72404;SDS011;60395;52.020;113.548;2023-02-11T16:00:45;8.77;;;2.77;;
72404;SDS011;60395;52.020;113.548;2023-02-11T16:03:53;12.07;;;3.90;;
72404;SDS011;60395;52.020;113.548;2023-02-11T16:06:57;18.17;;;4.63;;
72404;SDS011;60395;52.020;113.548;2023-02-11T16:10:00;5.05;;;2.28;;
72404;SDS011;60395;52.020;113.548;2023-02-11T16:16:17;18.77;;;3.33;;
72404;SDS011;60395;52.020;113.548;2023-02-11T16:19:27;11.55;;;3.75;;
72404;SDS011;60395;52.020;113.548;2023-02-11T16:22:30;7.43;;;1.33;;
72404;SDS011;60395;52.020;113.548;2023-02-11T16:25:40;22.08;;;3.30;;
72404;SDS011;60395;52.020;113.548;2023-02-11T16:28:44;10.68;;;3.78;;
72404;SDS011;60395;52.020;113.548;2023-02-11T16:31:47;12.13;;;4.20;;
72404;SDS011;60395;52.020;113.548;2023-02-11T16:34:52;26.60;;;5.07;;
72404;SDS011;60395;52.020;113.548;2023-02-11T16:37:59;30.35;;;5.72;;
72404;SDS011;60395;52.020;113.548;2023-02-11T16:41:02;26.95;;;5.47;;
72404;SDS011;60395;52.020;113.548;2023-02-11T16:44:06;17.13;;;5.13;;
72404;SDS011;60395;52.020;113.548;2023-02-11T16:47:15;17.80;;;5.03;;
72404;SDS011;60395;52.020;113.548;2023-02-11T16:50:27;28.75;;;4.75;;
72404;SDS011;60395;52.020;113.548;2023-02-11T16:53:31;15.82;;;5.20;;
72404;SDS011;60395;52.020;113.548;2023-02-11T16:56:34;20.63;;;6.30;;
72404;SDS011;60395;52.020;113.548;2023-02-11T16:59:38;19.10;;;6.00;;
72404;SDS011;60395;52.020;113.548;2023-02-11T17:02:41;27.55;;;8.48;;
72404;SDS011;60395;52.020;113.548;2023-02-11T17:05:45;22.73;;;8.27;;
72404;SDS011;60395;52.020;113.548;2023-02-11T17:08:58;32.72;;;7.05;;
72404;SDS011;60395;52.020;113.548;2023-02-11T17:12:02;15.40;;;5.20;;
72404;SDS011;60395;52.020;113.548;2023-02-11T17:15:05;28.88;;;5.20;;
72404;SDS011;60395;52.020;113.548;2023-02-11T17:18:11;22.95;;;6.72;;
72404;SDS011;60395;52.020;113.548;2023-02-11T17:21:18;12.65;;;3.90;;
72404;SDS011;60395;52.020;113.548;2023-02-11T17:24:21;18.80;;;3.87;;
72404;SDS011;60395;52.020;113.548;2023-02-11T17:27:25;13.77;;;5.70;;
72404;SDS011;60395;52.020;113.548;2023-02-11T17:30:28;15.93;;;4.50;;
72404;SDS011;60395;52.020;113.548;2023-02-11T17:33:31;11.23;;;3.08;;
72404;SDS011;60395;52.020;113.548;2023-02-11T17:36:37;10.82;;;4.68;;
72404;SDS011;60395;52.020;113.548;2023-02-11T17:39:42;9.75;;;3.55;;
72404;SDS011;60395;52.020;113.548;2023-02-11T17:42:46;6.45;;;2.65;;
72404;SDS011;60395;52.020;113.548;2023-02-11T17:45:49;9.02;;;4.05;;
72404;SDS011;60395;52.020;113.548;2023-02-11T17:48:53;16.88;;;3.67;;
72404;SDS011;60395;52.020;113.548;2023-02-11T17:51:57;12.52;;;4.05;;
72404;SDS011;60395;52.020;113.548;2023-02-11T17:55:00;10.63;;;3.70;;
72404;SDS011;60395;52.020;113.548;2023-02-11T17:58:03;8.37;;;2.50;;
72404;SDS011;60395;52.020;113.548;2023-02-11T18:01:07;17.80;;;3.73;;
72404;SDS011;60395;52.020;113.548;2023-02-11T18:04:17;7.07;;;3.33;;
72404;SDS011;60395;52.020;113.548;2023-02-11T18:07:21;9.18;;;3.95;;
72404;SDS011;60395;52.020;113.548;2023-02-11T18:10:25;13.32;;;4.63;;
72404;SDS011;60395;52.020;113.548;2023-02-11T18:13:28;9.27;;;3.83;;
72404;SDS011;60395;52.020;113.548;2023-02-11T18:16:32;18.48;;;5.13;;
72404;SDS011;60395;52.020;113.548;2023-02-11T18:19:37;13.80;;;4.40;;
72404;SDS011;60395;52.020;113.548;2023-02-11T18:22:41;8.48;;;4.18;;
72404;SDS011;60395;52.020;113.548;2023-02-11T18:28:48;9.15;;;3.08;;
72404;SDS011;60395;52.020;113.548;2023-02-11T18:31:54;14.35;;;4.22;;
72404;SDS011;60395;52.020;113.548;2023-02-11T18:34:58;7.97;;;3.20;;
72404;SDS011;60395;52.020;113.548;2023-02-11T18:38:01;13.05;;;4.72;;
72404;SDS011;60395;52.020;113.548;2023-02-11T18:41:05;7.23;;;2.33;;
72404;SDS011;60395;52.020;113.548;2023-02-11T18:44:11;10.80;;;4.38;;
72404;SDS011;60395;52.020;113.548;2023-02-11T18:47:15;14.88;;;5.20;;
72404;SDS011;60395;52.020;113.548;2023-02-11T18:50:19;16.67;;;5.13;;
72404;SDS011;60395;52.020;113.548;2023-02-11T18:53:23;16.85;;;6.07;;
72404;SDS011;60395;52.020;113.548;2023-02-11T18:56:26;12.45;;;4.75;;
72404;SDS011;60395;52.020;113.548;2023-02-11T18:59:30;11.97;;;5.30;;
72404;SDS011;60395;52.020;113.548;2023-02-11T19:02:33;16.20;;;4.68;;
72404;SDS011;60395;52.020;113.548;2023-02-11T19:05:40;16.75;;;5.78;;
72404;SDS011;60395;52.020;113.548;2023-02-11T19:08:45;13.13;;;4.75;;
72404;SDS011;60395;52.020;113.548;2023-02-11T19:11:48;14.40;;;6.22;;
72404;SDS011;60395;52.020;113.548;2023-02-11T19:14:51;15.75;;;5.53;;
72404;SDS011;60395;52.020;113.548;2023-02-11T19:17:55;16.03;;;6.23;;
72404;SDS011;60395;52.020;113.548;2023-02-11T19:20:58;28.27;;;7.28;;
72404;SDS011;60395;52.020;113.548;2023-02-11T19:24:05;13.02;;;5.15;;
72404;SDS011;60395;52.020;113.548;2023-02-11T19:27:10;13.70;;;5.25;;
72404;SDS011;60395;52.020;113.548;2023-02-11T19:30:14;12.23;;;4.68;;
72404;SDS011;60395;52.020;113.548;2023-02-11T19:33:17;9.43;;;3.80;;
72404;SDS011;60395;52.020;113.548;2023-02-11T19:36:20;13.90;;;5.45;;
72404;SDS011;60395;52.020;113.548;2023-02-11T19:39:24;11.43;;;4.57;;
72404;SDS011;60395;52.020;113.548;2023-02-11T19:42:27;11.13;;;5.00;;
72404;SDS011;60395;52.020;113.548;2023-02-11T19:45:31;8.80;;;4.60;;
72404;SDS011;60395;52.020;113.548;2023-02-11T19:48:34;13.70;;;3.92;;
72404;SDS011;60395;52.020;113.548;2023-02-11T19:51:37;8.63;;;3.80;;
72404;SDS011;60395;52.020;113.548;2023-02-11T19:54:41;5.63;;;2.72;;
72404;SDS011;60395;52.020;113.548;2023-02-11T19:57:44;10.23;;;3.43;;
72404;SDS011;60395;52.020;113.548;2023-02-11T20:00:48;21.75;;;4.97;;
72404;SDS011;60395;52.020;113.548;2023-02-11T20:03:51;9.60;;;3.93;;
72404;SDS011;60395;52.020;113.548;2023-02-11T20:06:56;10.48;;;3.88;;
72404;SDS011;60395;52.020;113.548;2023-02-11T20:10:00;22.58;;;5.68;;
72404;SDS011;60395;52.020;113.548;2023-02-11T20:13:03;9.50;;;4.45;;
72404;SDS011;60395;52.020;113.548;2023-02-11T20:16:07;11.48;;;4.65;;
72404;SDS011;60395;52.020;113.548;2023-02-11T20:19:48;18.17;;;4.88;;
72404;SDS011;60395;52.020;113.548;2023-02-11T20:22:51;13.80;;;5.57;;
72404;SDS011;60395;52.020;113.548;2023-02-11T20:25:55;14.77;;;6.45;;